Accueil
METAR-TAF:

METAR-TAF

Aéroports :

Aéroport des îles Cocos

Îles Cocos, Australie

latitude: 12-11S, longitude: 096-49E, altitude: 3 m

Observation

Le bulletin a été fait il y a 49 minutes, à 19:30 UTC
Vent 10 kt de est/sud-est
Température 27°C
Humidité 84%
Pression 1011 hPa
Visibilité 10 km ou plus

METAR: YPCC 241930Z AUTO 11010KT 9999 // NCD 27/24 Q1011 RF00.0/000.4

Heure: 02:49 (20:19 UTC)

Prévision

Le bulletin a été fait il y a 3 heures et 17 minutes, à 17:02 UTC
Prévision valable du 24 à 18 UTC au 25 à 18 UTC
Vent 14 kt de est
Visibilité 10 km ou plus
Nuages épars à une hauteur de 2000 ft

TAF: YPCC 241702Z 2418/2518 10014KT 9999 SCT020

Observations et prévisions météorologiques de plus de 4000 aéroports (messages METAR et TAF).

Les stations disponibles sont représentées par des disques jaunes et rouges sur la carte.

Passer la souris dessus pour voir le nom de la station.

Cliquer dessus pour voir les observations et prévisions météorologiques.

Pour changer de carte: cliquez sur les boutons verts avec une croix noire pour zoomer, sur le bouton vert avec un tiret pour effectuer un zoom arrière, ou sur les flèches vertes pour les cartes adjacentes.


METAR-TAF: